createdAt,value
2023-05-10T00:00:14.175Z,24.77
2023-05-10T00:02:41.662Z,32.63
2023-05-10T00:05:08.692Z,25.92
2023-05-10T00:07:35.225Z,22.52
2023-05-10T00:10:01.743Z,23.42
2023-05-10T00:12:28.262Z,24.23
2023-05-10T00:14:54.795Z,26.92
2023-05-10T00:17:21.450Z,24.77
2023-05-10T00:19:47.996Z,28.48
2023-05-10T00:22:14.495Z,29.23
2023-05-10T00:24:41.026Z,29.70
2023-05-10T00:27:07.505Z,27.83
2023-05-10T00:29:34.854Z,28.95
2023-05-10T00:32:01.507Z,29.67
2023-05-10T00:34:28.210Z,31.88
2023-05-10T00:36:54.857Z,31.08
2023-05-10T00:39:21.481Z,28.58
2023-05-10T00:41:48.087Z,27.33
2023-05-10T00:44:14.717Z,29.30
2023-05-10T00:46:41.583Z,27.77
2023-05-10T00:49:08.262Z,27.90
2023-05-10T00:51:34.937Z,27.50
2023-05-10T00:54:01.470Z,23.25
2023-05-10T00:56:29.466Z,28.20
2023-05-10T00:58:56.758Z,25.55
2023-05-10T01:01:23.419Z,25.70
2023-05-10T01:03:50.007Z,26.58
2023-05-10T01:06:16.538Z,26.75
2023-05-10T01:08:43.215Z,25.60
2023-05-10T01:11:09.927Z,27.05
2023-05-10T01:13:38.447Z,26.85
2023-05-10T01:16:05.876Z,25.35
2023-05-10T01:18:34.477Z,25.17
2023-05-10T01:21:14.546Z,24.25
2023-05-10T01:24:10.660Z,25.40
2023-05-10T01:27:11.428Z,28.05
2023-05-10T01:30:14.147Z,23.95
2023-05-10T01:32:52.139Z,25.60
2023-05-10T01:36:04.967Z,26.85
2023-05-10T01:38:57.688Z,25.73
2023-05-10T01:41:56.322Z,22.92
2023-05-10T01:44:30.977Z,23.55
2023-05-10T01:47:21.039Z,22.58
2023-05-10T01:49:52.333Z,22.15
2023-05-10T01:52:27.335Z,25.75
2023-05-10T01:55:02.153Z,24.00
2023-05-10T01:59:56.023Z,22.83
2023-05-10T02:02:23.901Z,21.83
2023-05-10T02:04:51.678Z,24.10
2023-05-10T02:07:18.744Z,23.80
2023-05-10T02:09:48.993Z,22.83
2023-05-10T02:12:16.619Z,27.90
2023-05-10T02:14:44.095Z,27.35
2023-05-10T02:17:10.982Z,26.45
2023-05-10T02:19:39.580Z,27.30
2023-05-10T02:22:06.298Z,22.67
2023-05-10T02:24:33.742Z,26.02
2023-05-10T02:27:00.901Z,25.98
2023-05-10T02:29:28.282Z,27.15
2023-05-10T02:31:56.205Z,25.95
2023-05-10T02:34:24.324Z,27.67
2023-05-10T02:36:52.262Z,27.48
2023-05-10T02:39:20.130Z,30.35
2023-05-10T02:41:47.904Z,24.65
2023-05-10T02:44:16.640Z,25.40
2023-05-10T02:46:43.144Z,29.50
2023-05-10T02:49:09.688Z,25.38
2023-05-10T02:51:38.758Z,29.75
2023-05-10T02:54:11.674Z,30.33
2023-05-10T02:56:44.042Z,31.80
2023-05-10T02:59:10.555Z,30.52
2023-05-10T03:01:37.085Z,30.75
2023-05-10T03:04:03.741Z,28.10
2023-05-10T03:06:30.378Z,28.67
2023-05-10T03:08:57.475Z,32.92
2023-05-10T03:11:46.383Z,27.50
2023-05-10T03:14:27.994Z,25.42
2023-05-10T03:16:59.972Z,32.50
2023-05-10T03:19:34.189Z,30.17
2023-05-10T03:22:05.952Z,35.00
2023-05-10T03:24:34.167Z,38.35
2023-05-10T03:27:03.773Z,34.33
2023-05-10T03:29:31.773Z,36.35
2023-05-10T03:32:01.562Z,32.47
2023-05-10T03:34:30.981Z,35.78
2023-05-10T03:36:57.471Z,36.97
2023-05-10T03:39:23.988Z,36.20
2023-05-10T03:41:50.457Z,33.40
2023-05-10T03:44:17.397Z,30.42
2023-05-10T03:46:44.016Z,34.13
2023-05-10T03:49:10.571Z,29.80
2023-05-10T03:51:37.261Z,28.05
2023-05-10T03:54:03.930Z,31.00
2023-05-10T03:56:31.048Z,32.13
2023-05-10T03:58:57.566Z,31.42
2023-05-10T04:01:24.062Z,30.80
2023-05-10T04:03:50.807Z,36.10
2023-05-10T04:06:17.576Z,33.70
2023-05-10T04:08:44.111Z,34.42
2023-05-10T04:11:13.229Z,31.00
2023-05-10T04:13:39.744Z,31.75
2023-05-10T04:16:06.539Z,32.10
2023-05-10T04:18:33.113Z,31.92
2023-05-10T04:20:59.630Z,28.92
2023-05-10T04:23:26.160Z,22.25
2023-05-10T04:25:52.736Z,16.55
2023-05-10T04:28:19.317Z,16.02
2023-05-10T04:30:46.696Z,18.17
2023-05-10T04:33:13.251Z,17.27
2023-05-10T04:35:41.030Z,17.50
2023-05-10T04:38:07.821Z,17.45
2023-05-10T04:40:35.220Z,17.50
2023-05-10T04:43:01.755Z,15.82
2023-05-10T04:45:28.256Z,15.93
2023-05-10T04:47:54.854Z,16.17
2023-05-10T04:50:21.403Z,16.83
2023-05-10T04:52:47.916Z,18.45
2023-05-10T04:55:14.702Z,18.85
2023-05-10T04:57:41.281Z,20.92
2023-05-10T05:00:08.446Z,22.42
2023-05-10T05:02:35.161Z,23.58
2023-05-10T05:05:01.892Z,22.67
2023-05-10T05:07:28.447Z,21.60
2023-05-10T05:09:54.973Z,20.52
2023-05-10T05:12:21.508Z,18.05
2023-05-10T05:14:48.004Z,19.90
2023-05-10T05:17:14.541Z,18.42
2023-05-10T05:19:41.073Z,21.20
2023-05-10T05:22:08.812Z,20.27
2023-05-10T05:24:39.148Z,19.55
2023-05-10T05:27:06.889Z,19.88
2023-05-10T05:29:33.426Z,19.88
2023-05-10T05:32:00.278Z,17.98
2023-05-10T05:34:26.993Z,19.40
2023-05-10T05:36:53.514Z,19.75
2023-05-10T05:39:20.021Z,18.17
2023-05-10T05:41:47.623Z,17.60
2023-05-10T05:44:14.132Z,18.17
2023-05-10T05:46:40.731Z,17.67
2023-05-10T05:49:07.492Z,18.17
2023-05-10T05:51:34.034Z,18.73
2023-05-10T05:54:00.585Z,16.02
2023-05-10T05:56:27.152Z,15.02
2023-05-10T05:58:53.890Z,11.88
2023-05-10T06:01:20.583Z,9.57
2023-05-10T06:03:47.171Z,10.45
2023-05-10T06:06:14.373Z,8.70
2023-05-10T06:08:40.896Z,8.52
2023-05-10T06:11:07.382Z,7.57
2023-05-10T06:13:36.159Z,7.20
2023-05-10T06:16:03.846Z,6.20
2023-05-10T06:18:30.392Z,6.97
2023-05-10T06:20:57.023Z,6.32
2023-05-10T06:23:23.821Z,7.15
2023-05-10T06:25:50.586Z,7.38
2023-05-10T06:28:17.178Z,8.68
2023-05-10T06:30:43.727Z,6.95
2023-05-10T06:33:10.353Z,8.30
2023-05-10T06:35:37.830Z,7.68
2023-05-10T06:38:04.401Z,7.45
2023-05-10T06:40:30.945Z,6.18
2023-05-10T06:42:57.484Z,6.45
2023-05-10T06:45:24.141Z,6.97
2023-05-10T06:47:50.704Z,6.13
2023-05-10T06:50:17.294Z,6.10
2023-05-10T06:52:44.183Z,6.07
2023-05-10T06:55:10.990Z,6.07
2023-05-10T06:57:37.632Z,5.88
2023-05-10T07:00:05.738Z,5.63
2023-05-10T07:02:32.375Z,4.97
2023-05-10T07:05:01.679Z,5.18
2023-05-10T07:07:29.855Z,5.38
2023-05-10T07:09:57.534Z,5.72
2023-05-10T07:12:24.801Z,6.30
2023-05-10T07:14:51.360Z,6.50
2023-05-10T07:17:17.924Z,5.95
2023-05-10T07:19:44.695Z,5.47
2023-05-10T07:22:11.266Z,5.22
2023-05-10T07:24:37.813Z,4.55
2023-05-10T07:27:05.216Z,4.07
2023-05-10T07:29:31.746Z,4.10
2023-05-10T07:31:59.039Z,6.00
2023-05-10T07:34:26.263Z,5.72
2023-05-10T07:36:53.194Z,5.53
2023-05-10T07:39:27.278Z,5.68
2023-05-10T07:41:55.501Z,5.68
2023-05-10T07:44:22.049Z,5.65
2023-05-10T07:46:49.096Z,6.35
2023-05-10T07:49:15.777Z,6.43
2023-05-10T07:51:43.323Z,6.90
2023-05-10T07:54:09.903Z,6.85
2023-05-10T07:56:36.448Z,8.25
2023-05-10T07:59:08.443Z,7.60
2023-05-10T08:01:36.243Z,5.72
2023-05-10T08:04:03.259Z,4.55
2023-05-10T08:06:30.880Z,4.40
2023-05-10T08:08:57.636Z,4.38
2023-05-10T08:11:24.325Z,4.00
2023-05-10T08:13:51.834Z,4.03
2023-05-10T08:16:18.466Z,4.00
2023-05-10T08:18:46.431Z,3.50
2023-05-10T08:21:13.433Z,3.63
2023-05-10T08:23:39.918Z,4.40
2023-05-10T08:26:06.699Z,4.90
2023-05-10T08:28:33.295Z,5.13
2023-05-10T08:31:00.053Z,5.10
2023-05-10T08:33:26.934Z,5.70
2023-05-10T08:35:53.481Z,6.43
2023-05-10T08:38:19.975Z,5.70
2023-05-10T08:40:46.715Z,6.38
2023-05-10T08:43:16.172Z,5.60
2023-05-10T08:45:46.292Z,6.75
2023-05-10T08:48:12.906Z,6.65
2023-05-10T08:50:42.990Z,6.40
2023-05-10T08:53:14.128Z,6.32
2023-05-10T08:55:43.041Z,7.75
2023-05-10T08:58:10.371Z,7.13
2023-05-10T09:00:38.222Z,7.22
2023-05-10T09:03:05.861Z,7.47
2023-05-10T09:05:32.888Z,7.63
2023-05-10T09:08:02.305Z,7.55
2023-05-10T09:10:29.207Z,7.28
2023-05-10T09:12:59.382Z,7.78
2023-05-10T09:15:26.237Z,7.75
2023-05-10T09:17:52.859Z,7.45
2023-05-10T09:20:21.372Z,7.55
2023-05-10T09:22:48.354Z,7.65
2023-05-10T09:25:16.613Z,6.80
2023-05-10T09:27:48.183Z,6.13
2023-05-10T09:30:19.102Z,5.05
2023-05-10T09:37:25.432Z,5.78
2023-05-10T09:39:55.584Z,5.53
2023-05-10T09:42:22.125Z,6.05
2023-05-10T09:44:48.955Z,6.30
2023-05-10T09:47:19.970Z,6.55
2023-05-10T09:49:54.070Z,7.80
2023-05-10T09:52:20.833Z,9.13
2023-05-10T09:54:54.298Z,8.02
2023-05-10T09:57:25.943Z,7.82
2023-05-10T09:59:54.530Z,8.27
2023-05-10T10:02:21.035Z,7.20
2023-05-10T10:04:50.280Z,6.65
2023-05-10T10:07:23.702Z,5.72
2023-05-10T10:09:50.789Z,5.68
2023-05-10T10:12:17.542Z,5.78
2023-05-10T10:14:44.275Z,5.80
2023-05-10T10:17:10.769Z,5.07
2023-05-10T10:19:38.043Z,4.35
2023-05-10T10:22:05.294Z,5.70
2023-05-10T10:24:32.170Z,4.85
2023-05-10T10:27:23.722Z,5.00
2023-05-10T10:29:53.331Z,4.32
2023-05-10T10:32:31.392Z,4.15
2023-05-10T10:34:58.043Z,4.15
2023-05-10T10:37:25.142Z,4.15
2023-05-10T10:39:51.780Z,4.15
2023-05-10T10:42:44.886Z,5.35
2023-05-10T10:45:14.704Z,3.47
2023-05-10T10:47:41.562Z,4.05
2023-05-10T10:50:09.161Z,3.67
2023-05-10T10:52:37.375Z,3.83
2023-05-10T10:55:14.188Z,3.83
2023-05-10T10:58:02.080Z,3.40
2023-05-10T11:00:29.172Z,3.85
2023-05-10T11:03:10.146Z,3.42
2023-05-10T11:05:47.266Z,3.90
2023-05-10T11:08:37.449Z,3.00
2023-05-10T11:11:09.133Z,3.45
2023-05-10T11:13:42.827Z,3.47
2023-05-10T11:16:15.792Z,3.90
2023-05-10T11:18:54.067Z,4.80
2023-05-10T11:21:20.755Z,3.40
2023-05-10T11:23:52.427Z,4.40
2023-05-10T11:26:19.685Z,4.55
2023-05-10T11:28:47.723Z,4.80
2023-05-10T11:31:18.257Z,5.47
2023-05-10T11:33:49.519Z,4.10
2023-05-10T11:36:17.836Z,5.07
2023-05-10T11:38:44.845Z,3.53
2023-05-10T11:41:12.582Z,3.42
2023-05-10T11:43:42.800Z,3.38
2023-05-10T11:46:12.276Z,4.05
2023-05-10T11:48:42.747Z,4.18
2023-05-10T11:51:09.844Z,4.00
2023-05-10T11:53:36.598Z,4.15
2023-05-10T11:56:10.303Z,4.45
2023-05-10T11:58:38.692Z,4.25
2023-05-10T12:01:06.854Z,4.82
2023-05-10T12:06:02.036Z,4.00
2023-05-10T12:08:30.085Z,3.80
2023-05-10T12:11:08.886Z,3.65
2023-05-10T12:13:41.311Z,4.45
2023-05-10T12:16:34.381Z,3.50
2023-05-10T12:19:01.940Z,3.35
2023-05-10T12:21:30.151Z,3.40
2023-05-10T12:24:01.233Z,2.88
2023-05-10T12:26:29.176Z,3.45
2023-05-10T12:28:55.995Z,3.13
2023-05-10T12:31:22.556Z,3.42
2023-05-10T12:33:50.304Z,2.88
2023-05-10T12:36:17.657Z,2.45
2023-05-10T12:38:48.543Z,3.03
2023-05-10T12:41:16.984Z,2.90
2023-05-10T12:43:43.794Z,3.03
2023-05-10T12:46:12.790Z,3.28
2023-05-10T12:48:41.168Z,3.42
2023-05-10T12:51:12.890Z,3.78
2023-05-10T12:53:45.077Z,2.97
2023-05-10T12:56:12.227Z,3.88
2023-05-10T12:58:39.460Z,3.72
2023-05-10T13:01:06.641Z,4.45
2023-05-10T13:03:33.387Z,3.88
2023-05-10T13:05:59.950Z,3.28
2023-05-10T13:08:26.548Z,4.20
2023-05-10T13:10:53.096Z,3.83
2023-05-10T13:13:19.629Z,3.63
2023-05-10T13:15:46.168Z,3.53
2023-05-10T13:18:12.794Z,3.25
2023-05-10T13:20:39.486Z,2.92
2023-05-10T13:23:06.050Z,3.30
2023-05-10T13:25:32.641Z,3.00
2023-05-10T13:27:59.124Z,2.47
2023-05-10T13:30:25.645Z,3.00
2023-05-10T13:32:52.252Z,2.92
2023-05-10T13:35:18.865Z,2.92
2023-05-10T13:37:45.491Z,3.42
2023-05-10T13:40:12.400Z,3.38
2023-05-10T13:42:39.049Z,3.53
2023-05-10T13:45:06.235Z,2.88
2023-05-10T13:47:33.095Z,3.25
2023-05-10T13:49:59.656Z,4.35
2023-05-10T13:52:27.304Z,4.03
2023-05-10T13:54:55.935Z,4.70
2023-05-10T13:57:22.942Z,4.22
2023-05-10T13:59:49.619Z,5.50
2023-05-10T14:02:16.120Z,4.85
2023-05-10T14:04:42.647Z,4.78
2023-05-10T14:07:09.246Z,5.32
2023-05-10T14:09:35.763Z,5.35
2023-05-10T14:12:03.128Z,6.05
2023-05-10T14:14:30.444Z,6.90
2023-05-10T14:16:56.973Z,7.45
2023-05-10T14:19:23.498Z,7.28
2023-05-10T14:21:50.022Z,7.90
2023-05-10T14:24:16.538Z,7.40
2023-05-10T14:26:43.032Z,7.13
2023-05-10T14:29:11.556Z,6.65
2023-05-10T14:31:39.070Z,6.90
2023-05-10T14:34:06.732Z,7.78
2023-05-10T14:36:33.373Z,8.00
2023-05-10T14:38:59.965Z,8.05
2023-05-10T14:41:26.478Z,6.80
2023-05-10T14:43:53.725Z,7.22
2023-05-10T14:46:20.761Z,6.03
2023-05-10T14:48:47.496Z,6.22
2023-05-10T14:51:14.578Z,5.65
2023-05-10T14:53:41.168Z,5.50
2023-05-10T14:56:08.203Z,5.65
2023-05-10T14:58:34.762Z,4.63
2023-05-10T15:01:01.781Z,4.95
2023-05-10T15:03:28.920Z,5.18
2023-05-10T15:05:57.132Z,4.53
2023-05-10T15:08:25.455Z,5.03
2023-05-10T15:10:52.404Z,5.28
2023-05-10T15:13:18.895Z,4.60
2023-05-10T15:15:45.443Z,4.05
2023-05-10T15:18:12.318Z,4.10
2023-05-10T15:20:38.964Z,4.50
2023-05-10T15:23:05.528Z,3.78
2023-05-10T15:25:32.179Z,3.72
2023-05-10T15:27:58.689Z,3.38
2023-05-10T15:30:25.268Z,3.20
2023-05-10T15:32:51.983Z,3.50
2023-05-10T15:35:18.744Z,3.72
2023-05-10T15:37:45.671Z,3.90
2023-05-10T15:40:12.651Z,3.97
2023-05-10T15:42:39.358Z,4.10
2023-05-10T15:45:07.048Z,4.05
2023-05-10T15:47:34.191Z,3.03
2023-05-10T15:50:01.127Z,3.58
2023-05-10T15:52:28.221Z,3.20
2023-05-10T15:54:54.837Z,2.83
2023-05-10T15:57:21.327Z,3.03
2023-05-10T15:59:47.871Z,2.92
2023-05-10T16:02:14.485Z,3.05
2023-05-10T16:04:41.060Z,2.92
2023-05-10T16:07:07.620Z,2.67
2023-05-10T16:09:41.346Z,2.38
2023-05-10T16:12:08.450Z,2.40
2023-05-10T16:14:35.005Z,2.85
2023-05-10T16:17:05.245Z,3.15
2023-05-10T16:19:32.053Z,3.05
2023-05-10T16:21:58.671Z,3.20
2023-05-10T16:24:25.955Z,3.80
2023-05-10T16:26:52.529Z,3.38
2023-05-10T16:29:19.055Z,3.67
2023-05-10T16:31:46.323Z,3.05
2023-05-10T16:34:12.891Z,4.13
2023-05-10T16:36:39.409Z,4.13
2023-05-10T16:39:05.938Z,4.50
2023-05-10T16:41:35.789Z,4.20
2023-05-10T16:44:03.874Z,4.10
2023-05-10T16:46:30.478Z,4.25
2023-05-10T16:48:57.106Z,4.57
2023-05-10T16:51:23.616Z,5.22
2023-05-10T16:53:50.090Z,4.93
2023-05-10T16:56:18.407Z,6.13
2023-05-10T16:58:44.925Z,6.60
2023-05-10T17:01:11.545Z,4.40
2023-05-10T17:03:38.242Z,4.35
2023-05-10T17:06:06.018Z,4.90
2023-05-10T17:08:33.024Z,5.18
2023-05-10T17:11:03.929Z,4.72
2023-05-10T17:13:31.115Z,5.68
2023-05-10T17:15:57.899Z,5.72
2023-05-10T17:18:24.786Z,4.72
2023-05-10T17:20:51.489Z,5.13
2023-05-10T17:23:18.022Z,4.75
2023-05-10T17:25:44.643Z,3.72
2023-05-10T17:28:11.183Z,3.53
2023-05-10T17:30:37.897Z,4.10
2023-05-10T17:33:05.224Z,5.40
2023-05-10T17:35:32.077Z,4.90
2023-05-10T17:37:58.631Z,5.05
2023-05-10T17:40:25.135Z,4.72
2023-05-10T17:42:52.095Z,5.07
2023-05-10T17:45:18.999Z,4.35
2023-05-10T17:47:46.320Z,5.45
2023-05-10T17:50:12.918Z,5.15
2023-05-10T17:52:39.511Z,4.70
2023-05-10T17:55:06.616Z,5.35
2023-05-10T17:57:33.386Z,6.25
2023-05-10T18:00:00.051Z,5.53
2023-05-10T18:02:26.896Z,5.88
2023-05-10T18:04:53.599Z,4.72
2023-05-10T18:07:22.847Z,4.70
2023-05-10T18:09:49.636Z,4.97
2023-05-10T18:12:16.497Z,4.90
2023-05-10T18:14:43.018Z,4.32
2023-05-10T18:17:09.878Z,4.68
2023-05-10T18:19:36.659Z,4.28
2023-05-10T18:22:03.254Z,4.70
2023-05-10T18:24:39.164Z,4.78
2023-05-10T18:27:09.836Z,4.05
2023-05-10T18:29:37.029Z,3.83
2023-05-10T18:32:03.787Z,4.38
2023-05-10T18:34:30.366Z,3.83
2023-05-10T18:36:57.028Z,3.95
2023-05-10T18:39:24.355Z,4.10
2023-05-10T18:41:51.118Z,4.10
2023-05-10T18:44:18.936Z,3.78
2023-05-10T18:46:45.654Z,3.92
2023-05-10T18:49:12.177Z,3.63
2023-05-10T18:51:38.679Z,3.83
2023-05-10T18:54:05.220Z,4.03
2023-05-10T18:56:31.763Z,3.95
2023-05-10T18:58:58.392Z,3.25
2023-05-10T19:01:25.005Z,3.70
2023-05-10T19:03:51.736Z,3.75
2023-05-10T19:06:18.302Z,3.90
2023-05-10T19:08:44.863Z,3.60
2023-05-10T19:11:11.401Z,4.93
2023-05-10T19:13:38.223Z,3.40
2023-05-10T19:16:14.994Z,3.45
2023-05-10T19:18:44.811Z,2.65
2023-05-10T19:21:11.462Z,3.13
2023-05-10T19:23:40.428Z,3.00
2023-05-10T19:26:08.034Z,3.03
2023-05-10T19:28:35.952Z,2.70
2023-05-10T19:31:02.568Z,2.75
2023-05-10T19:33:29.641Z,2.95
2023-05-10T19:35:56.369Z,2.72
2023-05-10T19:38:24.188Z,3.20
2023-05-10T19:40:57.427Z,2.33
2023-05-10T19:43:28.811Z,2.75
2023-05-10T19:45:58.345Z,2.67
2023-05-10T19:48:25.357Z,3.80
2023-05-10T19:50:52.881Z,3.22
2023-05-10T19:53:19.506Z,3.53
2023-05-10T19:55:46.233Z,3.20
2023-05-10T19:58:12.761Z,3.65
2023-05-10T20:00:39.293Z,3.88
2023-05-10T20:03:08.420Z,4.35
2023-05-10T20:05:35.837Z,4.13
2023-05-10T20:08:02.499Z,4.13
2023-05-10T20:10:29.057Z,4.20
2023-05-10T20:12:55.591Z,3.88
2023-05-10T20:15:23.277Z,4.07
2023-05-10T20:17:51.217Z,3.88
2023-05-10T20:20:18.236Z,3.53
2023-05-10T20:22:45.276Z,3.67
2023-05-10T20:25:12.353Z,3.65
2023-05-10T20:27:38.920Z,2.95
2023-05-10T20:30:06.246Z,3.00
2023-05-10T20:32:33.987Z,2.45
2023-05-10T20:35:00.534Z,2.63
2023-05-10T20:37:28.058Z,2.35
2023-05-10T20:39:55.530Z,2.13
2023-05-10T20:42:22.403Z,2.33
2023-05-10T20:44:49.637Z,2.22
2023-05-10T20:47:16.703Z,2.03
2023-05-10T20:49:43.815Z,2.35
2023-05-10T20:52:10.341Z,2.60
2023-05-10T20:54:36.850Z,2.75
2023-05-10T20:57:03.463Z,2.55
2023-05-10T20:59:30.121Z,3.15
2023-05-10T21:01:57.456Z,3.28
2023-05-10T21:04:25.692Z,3.05
2023-05-10T21:09:19.719Z,3.40
2023-05-10T21:11:46.285Z,2.90
2023-05-10T21:14:12.838Z,3.75
2023-05-10T21:16:39.418Z,3.63
2023-05-10T21:19:07.452Z,4.32
2023-05-10T21:21:34.367Z,3.45
2023-05-10T21:24:01.194Z,3.90
2023-05-10T21:26:27.820Z,3.63
2023-05-10T21:28:54.437Z,4.20
2023-05-10T21:31:21.397Z,3.88
2023-05-10T21:33:47.962Z,4.25
2023-05-10T21:36:14.598Z,4.93
2023-05-10T21:38:42.312Z,4.57
2023-05-10T21:41:08.840Z,4.47
2023-05-10T21:43:35.504Z,5.85
2023-05-10T21:46:02.143Z,5.50
2023-05-10T21:48:28.751Z,6.28
2023-05-10T21:50:55.338Z,6.03
2023-05-10T21:53:22.411Z,5.28
2023-05-10T21:55:49.038Z,6.65
2023-05-10T21:58:15.883Z,6.40
2023-05-10T22:00:42.397Z,7.20
2023-05-10T22:03:09.030Z,6.82
2023-05-10T22:05:35.673Z,6.68
2023-05-10T22:08:02.179Z,7.38
2023-05-10T22:10:28.753Z,7.10
2023-05-10T22:12:55.324Z,8.23
2023-05-10T22:15:22.106Z,7.43
2023-05-10T22:17:48.948Z,6.97
2023-05-10T22:20:15.788Z,7.85
2023-05-10T22:22:42.584Z,7.85
2023-05-10T22:25:09.310Z,7.88
2023-05-10T22:27:36.336Z,7.95
2023-05-10T22:30:03.926Z,7.40
2023-05-10T22:32:31.615Z,7.22
2023-05-10T22:34:58.318Z,7.65
2023-05-10T22:37:24.856Z,7.43
2023-05-10T22:39:51.448Z,8.27
2023-05-10T22:42:17.995Z,8.10
2023-05-10T22:44:44.588Z,8.95
2023-05-10T22:47:11.210Z,8.60
2023-05-10T22:49:37.910Z,7.38
2023-05-10T22:52:04.623Z,6.93
2023-05-10T22:54:31.147Z,7.72
2023-05-10T22:56:57.722Z,6.70
2023-05-10T22:59:24.262Z,6.85
2023-05-10T23:01:51.067Z,7.68
2023-05-10T23:04:18.266Z,7.30
2023-05-10T23:06:45.859Z,7.88
2023-05-10T23:09:12.388Z,7.25
2023-05-10T23:11:38.921Z,8.27
2023-05-10T23:14:05.430Z,8.18
2023-05-10T23:16:32.021Z,9.52
2023-05-10T23:18:58.790Z,8.43
2023-05-10T23:21:25.396Z,8.88
2023-05-10T23:23:52.439Z,9.38
2023-05-10T23:26:19.249Z,10.05
2023-05-10T23:28:45.862Z,9.85
2023-05-10T23:31:12.350Z,10.75
2023-05-10T23:33:38.932Z,12.02
2023-05-10T23:36:05.737Z,11.15
2023-05-10T23:38:32.618Z,11.82
2023-05-10T23:40:59.141Z,11.68
2023-05-10T23:43:25.921Z,11.75
2023-05-10T23:45:54.018Z,12.02
2023-05-10T23:48:20.914Z,10.68
2023-05-10T23:50:47.882Z,11.02
2023-05-10T23:53:14.438Z,11.73
2023-05-10T23:55:40.966Z,11.35
2023-05-10T23:58:07.757Z,11.15
